Time;durP1;ratioP1;P1;durP2;ratioP2;P2;SDS_P1;SDS_P2;PMS_P1;PMS_P2;Temp;Humidity;BMP_temperature;BMP_pressure;BME280_temperature;BME280_humidity;BME280_pressure;Samples;Min_cycle;Max_cycle;Signal;HPM_P1;HPM_P2
2022/12/16 00:02:09;;;;;;;21.85;13.63;;;;;;;;;;4941194;29;20039;-93
2022/12/16 00:04:35;;;;;;;23.05;14.35;;;;;;;;;;4940365;29;20031;-92
2022/12/16 00:10:06;;;;;;;24.20;13.98;;;;;;;;;;4940938;29;20030;-92
2022/12/16 00:12:32;;;;;;;20.13;13.43;;;;;;;;;;4940836;29;20024;-93
2022/12/16 00:14:58;;;;;;;18.80;13.13;;;;;;;;;;4940722;29;20040;-91
2022/12/16 00:17:24;;;;;;;21.00;13.50;;;;;;;;;;4924164;29;20418;-92
2022/12/16 00:19:50;;;;;;;22.02;13.43;;;;;;;;;;4940827;29;20031;-91
2022/12/16 00:25:20;;;;;;;20.23;12.38;;;;;;;;;;4940794;29;20039;-93
2022/12/16 00:27:46;;;;;;;22.85;14.35;;;;;;;;;;4940365;29;20034;-92
2022/12/16 00:30:12;;;;;;;20.83;12.68;;;;;;;;;;4923394;29;20039;-91
2022/12/16 00:32:38;;;;;;;21.92;14.43;;;;;;;;;;4940194;29;20023;-91
2022/12/16 00:35:04;;;;;;;24.52;14.05;;;;;;;;;;4923631;29;20167;-93
2022/12/16 00:40:48;;;;;;;18.77;12.55;;;;;;;;;;4938746;29;20063;-91
2022/12/16 00:43:14;;;;;;;22.38;13.40;;;;;;;;;;4944531;29;20030;-91
2022/12/16 00:45:40;;;;;;;20.10;13.40;;;;;;;;;;4927572;29;20168;-93
2022/12/16 00:48:06;;;;;;;22.58;14.25;;;;;;;;;;4927522;29;20047;-92
2022/12/16 00:50:33;;;;;;;23.48;14.32;;;;;;;;;;4944513;29;20028;-91
2022/12/16 00:52:59;;;;;;;27.35;14.70;;;;;;;;;;4926828;29;20039;-93
2022/12/16 00:55:25;;;;;;;27.13;15.40;;;;;;;;;;4927290;29;20118;-91
2022/12/16 00:57:51;;;;;;;22.83;14.90;;;;;;;;;;4944131;29;20039;-91
2022/12/16 01:00:17;;;;;;;20.45;13.13;;;;;;;;;;4944447;29;20020;-93
2022/12/16 01:02:44;;;;;;;19.40;13.18;;;;;;;;;;4927359;29;20071;-91
2022/12/16 01:05:11;;;;;;;23.73;15.50;;;;;;;;;;4926947;29;20455;-92
2022/12/16 01:07:37;;;;;;;22.45;14.35;;;;;;;;;;4943884;29;20042;-93
2022/12/16 01:10:05;;;;;;;22.23;13.70;;;;;;;;;;4943996;29;20028;-93
2022/12/16 01:12:31;;;;;;;20.88;13.27;;;;;;;;;;4944101;29;20317;-93
2022/12/16 01:14:58;;;;;;;21.73;14.07;;;;;;;;;;4943819;29;20063;-92
2022/12/16 01:17:24;;;;;;;23.65;14.18;;;;;;;;;;4927228;29;20083;-92
2022/12/16 01:19:51;;;;;;;21.65;14.13;;;;;;;;;;4943943;29;20039;-93
2022/12/16 01:25:39;;;;;;;22.73;13.80;;;;;;;;;;4943855;29;20051;-92
2022/12/16 01:28:05;;;;;;;20.60;13.20;;;;;;;;;;4943828;29;20108;-92
2022/12/16 01:30:31;;;;;;;20.00;13.05;;;;;;;;;;4926361;29;20042;-92
2022/12/16 01:32:57;;;;;;;21.70;13.32;;;;;;;;;;4943276;29;20024;-91
2022/12/16 01:35:23;;;;;;;19.27;12.55;;;;;;;;;;4927091;29;20071;-92
2022/12/16 01:37:49;;;;;;;20.05;12.82;;;;;;;;;;4926696;29;20035;-93
2022/12/16 01:40:17;;;;;;;21.42;13.52;;;;;;;;;;4943125;29;20138;-92
2022/12/16 01:42:43;;;;;;;19.65;12.15;;;;;;;;;;4926647;29;20059;-91
2022/12/16 01:45:42;;;;;;;21.20;12.73;;;;;;;;;;4943572;29;20059;-93
2022/12/16 01:48:20;;;;;;;18.45;12.10;;;;;;;;;;4848138;29;20117;-91
2022/12/16 01:50:46;;;;;;;18.27;12.35;;;;;;;;;;4848000;29;20067;-91
2022/12/16 01:53:13;;;;;;;21.95;13.00;;;;;;;;;;4847697;29;20033;-92
2022/12/16 01:55:45;;;;;;;16.02;11.65;;;;;;;;;;4832499;29;20030;-92
2022/12/16 01:58:16;;;;;;;20.42;12.55;;;;;;;;;;4847886;29;20038;-92
2022/12/16 02:00:42;;;;;;;19.83;13.27;;;;;;;;;;4832424;29;20417;-91
2022/12/16 02:03:09;;;;;;;19.23;12.70;;;;;;;;;;4847530;29;20079;-91
2022/12/16 02:05:38;;;;;;;21.42;12.55;;;;;;;;;;4832068;29;20074;-92
2022/12/16 02:08:11;;;;;;;18.98;11.68;;;;;;;;;;4832327;29;20337;-91
2022/12/16 02:10:42;;;;;;;19.27;13.00;;;;;;;;;;4847585;29;20087;-91
2022/12/16 02:13:17;;;;;;;21.88;12.57;;;;;;;;;;4847621;29;20038;-93
2022/12/16 02:15:58;;;;;;;23.40;13.88;;;;;;;;;;4832398;29;20053;-96
2022/12/16 02:18:27;;;;;;;18.08;12.18;;;;;;;;;;4847558;29;20445;-96
2022/12/16 02:21:16;;;;;;;18.05;11.77;;;;;;;;;;4847677;29;20030;-94
2022/12/16 02:24:00;;;;;;;19.80;11.90;;;;;;;;;;4814636;29;20042;-95
2022/12/16 02:26:29;;;;;;;18.20;12.32;;;;;;;;;;4828967;29;20041;-94
2022/12/16 02:29:01;;;;;;;18.67;11.82;;;;;;;;;;4828861;29;20342;-95
2022/12/16 02:31:43;;;;;;;20.10;12.98;;;;;;;;;;4828880;29;20034;-96
2022/12/16 02:34:24;;;;;;;20.08;12.65;;;;;;;;;;4828820;29;20045;-96
2022/12/16 02:39:53;;;;;;;;;;;;;;;;;;4835865;29;20367;-95
2022/12/16 02:42:26;;;;;;;19.23;11.77;;;;;;;;;;4831664;29;19908;-95
2022/12/16 02:44:55;;;;;;;21.55;12.23;;;;;;;;;;4846846;29;20040;-94
2022/12/16 02:47:21;;;;;;;20.38;12.55;;;;;;;;;;4831949;29;20089;-95
2022/12/16 02:49:51;;;;;;;21.02;12.27;;;;;;;;;;4846976;29;20034;-95
2022/12/16 02:52:19;;;;;;;20.17;12.02;;;;;;;;;;4831540;29;20060;-94
2022/12/16 02:54:46;;;;;;;19.55;11.70;;;;;;;;;;4846838;29;20038;-95
2022/12/16 02:57:12;;;;;;;18.92;12.00;;;;;;;;;;4846837;29;20026;-95
2022/12/16 02:59:54;;;;;;;18.00;12.38;;;;;;;;;;4838024;29;20435;-96
2022/12/16 03:02:20;;;;;;;15.80;11.38;;;;;;;;;;4941863;29;20031;-96
2022/12/16 03:04:48;;;;;;;18.02;11.13;;;;;;;;;;4941803;29;20028;-96
2022/12/16 03:07:16;;;;;;;17.65;11.55;;;;;;;;;;4941853;29;20043;-95
2022/12/16 03:09:43;;;;;;;17.90;11.60;;;;;;;;;;4941668;29;20059;-96
2022/12/16 03:12:12;;;;;;;20.85;12.07;;;;;;;;;;4924934;29;20422;-96
2022/12/16 03:14:39;;;;;;;19.58;11.88;;;;;;;;;;4941820;29;20078;-95
2022/12/16 03:17:06;;;;;;;19.38;12.82;;;;;;;;;;4924797;29;20024;-96
2022/12/16 03:19:33;;;;;;;17.38;11.65;;;;;;;;;;4924798;29;20067;-96
2022/12/16 03:22:08;;;;;;;17.15;11.32;;;;;;;;;;4941426;29;20418;-96
2022/12/16 03:24:35;;;;;;;17.85;10.60;;;;;;;;;;4924560;29;20493;-96
2022/12/16 03:27:04;;;;;;;16.90;10.73;;;;;;;;;;4941651;29;20111;-96
2022/12/16 03:29:38;;;;;;;16.02;10.77;;;;;;;;;;4941520;29;20031;-94
2022/12/16 03:32:09;;;;;;;18.00;11.30;;;;;;;;;;4941396;29;20043;-95
2022/12/16 03:34:35;;;;;;;17.17;10.38;;;;;;;;;;4941455;29;20031;-95
2022/12/16 03:37:06;;;;;;;15.40;10.07;;;;;;;;;;4924141;29;20102;-94
2022/12/16 03:39:34;;;;;;;16.70;10.63;;;;;;;;;;4940893;29;20082;-94
2022/12/16 03:42:02;;;;;;;15.40;10.13;;;;;;;;;;4941026;29;20415;-94
2022/12/16 03:44:29;;;;;;;20.77;10.50;;;;;;;;;;4941059;29;20028;-95
2022/12/16 03:46:55;;;;;;;14.73;9.77;;;;;;;;;;4941246;29;20038;-95
2022/12/16 03:49:22;;;;;;;16.55;10.57;;;;;;;;;;4940504;29;20449;-95
2022/12/16 03:51:48;;;;;;;14.93;9.75;;;;;;;;;;4941294;29;20398;-96
2022/12/16 03:54:15;;;;;;;14.85;9.20;;;;;;;;;;4940948;29;20028;-96
2022/12/16 03:56:41;;;;;;;16.65;9.57;;;;;;;;;;4940822;29;20063;-95
2022/12/16 03:59:08;;;;;;;15.10;9.55;;;;;;;;;;4941181;29;20091;-96
2022/12/16 04:01:34;;;;;;;14.20;9.32;;;;;;;;;;4941040;29;20031;-96
2022/12/16 04:04:00;;;;;;;13.77;9.23;;;;;;;;;;4941243;29;20027;-95
2022/12/16 04:06:26;;;;;;;21.10;10.00;;;;;;;;;;4923782;29;20131;-96
2022/12/16 04:09:04;;;;;;;17.30;9.23;;;;;;;;;;4923978;29;20032;-95
2022/12/16 04:25:35;;;;;;;16.65;9.32;;;;;;;;;;4940997;29;20337;-94
2022/12/16 04:28:01;;;;;;;17.98;9.35;;;;;;;;;;4940569;29;20110;-93
2022/12/16 04:30:29;;;;;;;19.20;9.80;;;;;;;;;;4940581;29;20031;-94
